createdAt,value
2019-03-28T00:01:43.146Z,42.87
2019-03-28T00:04:12.857Z,43.00
2019-03-28T00:06:42.542Z,43.09
2019-03-28T00:09:12.181Z,43.18
2019-03-28T00:11:41.874Z,43.30
2019-03-28T00:14:11.563Z,43.41
2019-03-28T00:16:41.200Z,43.50
2019-03-28T00:19:10.967Z,43.66
2019-03-28T00:21:40.614Z,43.77
2019-03-28T00:24:27.848Z,43.98
2019-03-28T00:26:57.509Z,44.21
2019-03-28T00:29:27.179Z,44.23
2019-03-28T00:31:56.826Z,44.30
2019-03-28T00:34:26.506Z,44.35
2019-03-28T00:36:56.139Z,44.46
2019-03-28T00:39:25.828Z,44.52
2019-03-28T00:41:55.898Z,44.55
2019-03-28T00:44:25.585Z,44.58
2019-03-28T00:46:55.234Z,44.65
2019-03-28T00:49:24.898Z,44.84
2019-03-28T00:51:54.587Z,44.78
2019-03-28T00:54:26.641Z,44.75
2019-03-28T00:56:56.304Z,44.70
2019-03-28T00:59:26.136Z,44.75
2019-03-28T01:01:56.099Z,44.83
2019-03-28T01:04:25.806Z,44.88
2019-03-28T01:06:55.503Z,44.92
2019-03-28T01:09:25.249Z,44.78
2019-03-28T01:11:55.019Z,44.80
2019-03-28T01:14:24.652Z,44.82
2019-03-28T01:16:54.381Z,44.89
2019-03-28T01:19:24.073Z,44.97
2019-03-28T01:21:53.750Z,45.01
2019-03-28T01:24:23.514Z,45.11
2019-03-28T01:26:57.588Z,45.19
2019-03-28T01:29:24.623Z,45.24
2019-03-28T01:31:54.377Z,45.37
2019-03-28T01:34:24.027Z,45.39
2019-03-28T01:36:53.710Z,45.49
2019-03-28T01:39:23.435Z,45.50
2019-03-28T01:41:53.093Z,45.53
2019-03-28T01:44:22.795Z,45.59
2019-03-28T01:46:52.572Z,45.64
2019-03-28T01:49:23.061Z,45.55
2019-03-28T01:51:52.755Z,45.48
2019-03-28T01:54:22.461Z,45.45
2019-03-28T01:56:52.127Z,45.51
2019-03-28T01:59:21.844Z,45.65
2019-03-28T02:01:51.506Z,45.66
2019-03-28T02:04:21.226Z,45.70
2019-03-28T02:06:50.852Z,45.86
2019-03-28T02:09:20.483Z,45.88
2019-03-28T02:11:50.126Z,45.83
2019-03-28T02:14:19.733Z,45.74
2019-03-28T02:16:49.403Z,45.66
2019-03-28T02:19:19.346Z,45.59
2019-03-28T02:21:49.198Z,45.64
2019-03-28T02:24:18.828Z,45.61
2019-03-28T02:26:48.506Z,45.74
2019-03-28T02:29:18.128Z,45.68
2019-03-28T02:31:47.884Z,45.72
2019-03-28T02:34:17.598Z,45.85
2019-03-28T02:36:47.249Z,45.97
2019-03-28T02:39:16.876Z,46.07
2019-03-28T02:41:46.556Z,46.17
2019-03-28T02:44:16.156Z,46.26
2019-03-28T02:46:45.823Z,46.31
2019-03-28T02:49:15.473Z,46.38
2019-03-28T02:51:45.128Z,46.44
2019-03-28T02:54:14.901Z,46.50
2019-03-28T02:56:44.547Z,46.53
2019-03-28T02:59:14.181Z,46.54
2019-03-28T03:01:43.885Z,46.61
2019-03-28T03:04:13.510Z,46.64
2019-03-28T03:06:43.194Z,46.66
2019-03-28T03:09:12.779Z,46.71
2019-03-28T03:11:43.101Z,46.79
2019-03-28T03:14:12.858Z,46.85
2019-03-28T03:16:42.546Z,46.96
2019-03-28T03:19:12.135Z,46.95
2019-03-28T03:21:41.828Z,46.96
2019-03-28T03:24:11.537Z,47.05
2019-03-28T03:26:41.259Z,47.03
2019-03-28T03:29:10.919Z,47.04
2019-03-28T03:31:40.610Z,47.13
2019-03-28T03:34:10.209Z,47.14
2019-03-28T03:36:39.826Z,47.19
2019-03-28T03:39:10.152Z,47.13
2019-03-28T03:41:39.795Z,47.11
2019-03-28T03:44:09.533Z,47.16
2019-03-28T03:46:39.232Z,47.14
2019-03-28T03:49:09.005Z,47.16
2019-03-28T03:51:38.646Z,47.16
2019-03-28T03:54:08.355Z,47.20
2019-03-28T03:56:38.483Z,47.24
2019-03-28T03:59:08.174Z,47.31
2019-03-28T04:01:37.853Z,47.36
2019-03-28T04:04:07.568Z,47.39
2019-03-28T04:06:37.255Z,47.38
2019-03-28T04:09:07.702Z,47.45
2019-03-28T04:11:38.257Z,47.45
2019-03-28T04:14:08.023Z,47.47
2019-03-28T04:16:37.700Z,47.45
2019-03-28T04:19:07.400Z,47.40
2019-03-28T04:21:37.078Z,47.39
2019-03-28T04:24:06.858Z,47.37
2019-03-28T04:26:36.573Z,47.42
2019-03-28T04:29:06.262Z,47.42
2019-03-28T04:31:35.886Z,47.44
2019-03-28T04:34:07.757Z,47.26
2019-03-28T04:36:37.024Z,47.13
2019-03-28T04:39:07.019Z,47.03
2019-03-28T04:41:36.711Z,46.97
2019-03-28T04:44:06.412Z,46.92
2019-03-28T04:46:36.179Z,46.87
2019-03-28T04:49:05.860Z,46.82
2019-03-28T04:51:35.655Z,46.82
2019-03-28T04:54:05.441Z,46.90
2019-03-28T04:56:35.069Z,46.94
2019-03-28T04:59:04.740Z,47.07
2019-03-28T05:01:34.511Z,47.21
2019-03-28T05:04:04.190Z,47.32
2019-03-28T05:06:33.851Z,47.43
2019-03-28T05:09:04.215Z,47.41
2019-03-28T05:11:33.871Z,47.45
2019-03-28T05:14:03.561Z,47.49
2019-03-28T05:16:33.167Z,47.54
2019-03-28T05:19:02.963Z,47.54
2019-03-28T05:21:32.650Z,47.65
2019-03-28T05:24:02.349Z,47.65
2019-03-28T05:26:32.092Z,47.68
2019-03-28T05:29:01.797Z,47.81
2019-03-28T05:31:31.456Z,47.88
2019-03-28T05:34:01.135Z,47.90
2019-03-28T05:36:30.795Z,47.89
2019-03-28T05:39:00.483Z,47.90
2019-03-28T05:41:30.094Z,47.90
2019-03-28T05:43:59.804Z,47.99
2019-03-28T05:46:29.642Z,48.01
2019-03-28T05:48:59.331Z,47.98
2019-03-28T05:51:29.180Z,47.94
2019-03-28T05:53:58.854Z,47.89
2019-03-28T05:56:28.550Z,47.86
2019-03-28T05:59:10.150Z,47.87
2019-03-28T06:01:29.749Z,47.83
2019-03-28T06:03:59.359Z,47.81
2019-03-28T06:06:29.103Z,47.83
2019-03-28T06:08:59.911Z,47.87
2019-03-28T06:11:29.585Z,47.84
2019-03-28T06:13:59.237Z,47.84
2019-03-28T06:16:28.905Z,47.84
2019-03-28T06:18:58.737Z,47.82
2019-03-28T06:21:28.806Z,47.86
2019-03-28T06:23:58.460Z,47.89
2019-03-28T06:26:28.133Z,47.89
2019-03-28T06:28:57.810Z,47.88
2019-03-28T06:31:27.449Z,47.85
2019-03-28T06:33:57.136Z,47.85
2019-03-28T06:36:26.916Z,47.79
2019-03-28T06:38:58.810Z,47.74
2019-03-28T06:41:28.545Z,47.70
2019-03-28T06:43:58.211Z,47.66
2019-03-28T06:46:27.986Z,47.61
2019-03-28T06:48:57.685Z,47.61
2019-03-28T06:51:27.389Z,47.59
2019-03-28T06:53:57.295Z,47.40
2019-03-28T06:56:26.993Z,47.34
2019-03-28T06:58:56.620Z,47.29
2019-03-28T07:01:30.182Z,47.28
2019-03-28T07:03:59.908Z,47.29
2019-03-28T07:06:29.550Z,47.17
2019-03-28T07:08:59.257Z,47.12
2019-03-28T07:11:31.179Z,47.07
2019-03-28T07:14:00.850Z,47.11
2019-03-28T07:16:30.587Z,47.03
2019-03-28T07:19:00.304Z,46.93
2019-03-28T07:21:29.931Z,46.80
2019-03-28T07:23:59.592Z,46.71
2019-03-28T07:26:29.297Z,46.61
2019-03-28T07:28:59.461Z,46.52
2019-03-28T07:31:29.190Z,46.40
2019-03-28T07:33:58.861Z,46.35
2019-03-28T07:36:28.495Z,46.18
2019-03-28T07:38:58.121Z,46.01
2019-03-28T07:41:27.884Z,45.89
2019-03-28T07:43:57.584Z,45.74
2019-03-28T07:46:27.299Z,45.58
2019-03-28T07:48:56.964Z,45.51
2019-03-28T07:51:27.629Z,45.26
2019-03-28T07:53:57.389Z,45.14
2019-03-28T07:56:27.098Z,45.11
2019-03-28T07:58:56.769Z,44.88
2019-03-28T08:01:26.488Z,44.76
2019-03-28T08:03:56.133Z,44.64
2019-03-28T08:06:25.835Z,44.56
2019-03-28T08:08:55.544Z,44.45
2019-03-28T08:11:25.505Z,44.44
2019-03-28T08:13:55.386Z,44.27
2019-03-28T08:16:28.619Z,44.13
2019-03-28T08:18:56.466Z,44.06
2019-03-28T08:21:26.255Z,43.95
2019-03-28T08:23:55.916Z,43.96
2019-03-28T08:26:26.474Z,43.88
2019-03-28T08:28:56.251Z,43.92
2019-03-28T08:31:26.071Z,43.67
2019-03-28T08:34:01.833Z,43.60
2019-03-28T08:36:31.617Z,43.54
2019-03-28T08:39:01.279Z,43.52
2019-03-28T08:41:30.980Z,43.64
2019-03-28T08:44:00.728Z,43.74
2019-03-28T08:46:30.433Z,43.77
2019-03-28T08:49:00.076Z,43.89
2019-03-28T08:51:29.793Z,43.96
2019-03-28T08:53:59.603Z,43.97
2019-03-28T08:56:41.720Z,43.87
2019-03-28T08:59:11.436Z,43.81
2019-03-28T09:01:41.165Z,43.80
2019-03-28T09:04:10.874Z,43.52
2019-03-28T09:06:40.597Z,43.39
2019-03-28T09:09:10.532Z,43.23
2019-03-28T09:11:40.259Z,43.13
2019-03-28T09:14:09.935Z,42.83
2019-03-28T09:16:40.449Z,42.49
2019-03-28T09:19:10.178Z,42.20
2019-03-28T09:21:39.942Z,42.12
2019-03-28T09:24:09.601Z,41.98
2019-03-28T09:26:39.291Z,42.22
2019-03-28T09:29:08.961Z,42.26
2019-03-28T09:31:38.612Z,42.23
2019-03-28T09:34:08.364Z,42.01
2019-03-28T09:36:38.093Z,41.89
2019-03-28T09:39:08.937Z,41.76
2019-03-28T09:41:38.628Z,41.75
2019-03-28T09:44:08.279Z,41.34
2019-03-28T09:46:38.021Z,40.83
2019-03-28T09:49:07.694Z,40.15
2019-03-28T09:51:38.531Z,39.76
2019-03-28T09:54:08.651Z,38.94
2019-03-28T09:56:38.359Z,38.64
2019-03-28T09:59:07.993Z,37.31
2019-03-28T10:01:37.705Z,37.19
2019-03-28T10:04:07.411Z,37.06
2019-03-28T10:06:38.791Z,36.56
2019-03-28T10:09:08.979Z,36.41
2019-03-28T10:11:38.728Z,36.18
2019-03-28T10:14:08.374Z,36.08
2019-03-28T10:16:40.346Z,35.23
2019-03-28T10:19:09.567Z,34.06
2019-03-28T10:21:39.230Z,33.76
2019-03-28T10:24:08.920Z,33.95
2019-03-28T10:26:39.453Z,33.56
2019-03-28T10:29:09.564Z,32.83
2019-03-28T10:31:39.445Z,32.13
2019-03-28T10:34:10.344Z,32.22
2019-03-28T10:36:40.092Z,32.02
2019-03-28T10:39:10.314Z,31.99
2019-03-28T10:41:42.606Z,31.83
2019-03-28T10:44:12.337Z,31.56
2019-03-28T10:46:42.288Z,31.63
2019-03-28T10:49:12.017Z,31.55
2019-03-28T10:51:41.809Z,31.64
2019-03-28T10:54:19.839Z,31.57
2019-03-28T10:56:51.767Z,31.51
2019-03-28T10:59:23.217Z,31.38
2019-03-28T11:01:50.546Z,31.19
2019-03-28T11:04:18.316Z,30.89
2019-03-28T11:06:48.064Z,30.55
2019-03-28T11:09:17.781Z,30.18
2019-03-28T11:11:47.959Z,29.89
2019-03-28T11:14:17.642Z,30.21
2019-03-28T11:16:48.363Z,30.48
2019-03-28T11:19:18.303Z,30.26
2019-03-28T11:21:48.104Z,30.52
2019-03-28T11:24:17.863Z,30.85
2019-03-28T11:26:47.654Z,30.99
2019-03-28T11:29:17.415Z,30.73
2019-03-28T11:31:51.967Z,30.78
2019-03-28T11:34:18.634Z,30.98
2019-03-28T11:36:48.361Z,30.63
2019-03-28T11:39:18.114Z,30.74
2019-03-28T11:41:47.995Z,30.51
2019-03-28T11:44:18.046Z,30.48
2019-03-28T11:46:47.836Z,30.21
2019-03-28T11:49:17.581Z,30.20
2019-03-28T11:51:47.312Z,30.02
2019-03-28T11:54:17.044Z,29.96
2019-03-28T11:56:46.796Z,30.00
2019-03-28T11:59:16.482Z,30.04
2019-03-28T12:01:59.118Z,29.86
2019-03-28T12:04:17.790Z,29.96
2019-03-28T12:06:49.096Z,30.06
2019-03-28T12:09:19.119Z,30.30
2019-03-28T12:11:49.017Z,30.72
2019-03-28T12:14:18.779Z,30.93
2019-03-28T12:16:48.557Z,30.95
2019-03-28T12:19:18.636Z,31.18
2019-03-28T12:21:48.440Z,31.38
2019-03-28T12:24:18.200Z,31.81
2019-03-28T12:26:47.951Z,32.06
2019-03-28T12:29:18.133Z,32.14
2019-03-28T12:31:47.946Z,32.40
2019-03-28T12:34:17.605Z,32.54
2019-03-28T12:36:47.367Z,32.88
2019-03-28T12:39:17.241Z,33.03
2019-03-28T12:41:47.032Z,33.42
2019-03-28T12:44:16.779Z,33.52
2019-03-28T12:46:46.526Z,33.58
2019-03-28T12:49:16.229Z,33.69
2019-03-28T12:51:45.951Z,33.54
2019-03-28T12:54:15.637Z,33.52
2019-03-28T12:56:45.422Z,33.76
2019-03-28T12:59:15.476Z,34.00
2019-03-28T13:01:45.354Z,34.21
2019-03-28T13:04:15.078Z,34.16
2019-03-28T13:06:44.889Z,34.31
2019-03-28T13:09:14.656Z,34.44
2019-03-28T13:11:45.687Z,34.49
2019-03-28T13:14:15.464Z,34.41
2019-03-28T13:16:45.351Z,34.53
2019-03-28T13:19:15.322Z,34.49
2019-03-28T13:21:49.313Z,34.51
2019-03-28T13:24:19.710Z,34.46
2019-03-28T13:26:49.590Z,34.36
2019-03-28T13:29:22.720Z,34.67
2019-03-28T13:31:52.802Z,34.57
2019-03-28T13:34:22.949Z,34.49
2019-03-28T13:36:52.965Z,34.54
2019-03-28T13:39:22.970Z,34.23
2019-03-28T13:41:52.999Z,33.99
2019-03-28T13:44:22.951Z,33.90
2019-03-28T13:46:53.202Z,33.72
2019-03-28T13:49:23.182Z,33.89
2019-03-28T13:51:53.245Z,33.87
2019-03-28T13:54:23.506Z,33.61
2019-03-28T13:56:53.423Z,33.63
2019-03-28T13:59:23.942Z,33.27
2019-03-28T14:01:54.139Z,33.24
2019-03-28T14:04:24.123Z,33.34
2019-03-28T14:06:54.327Z,33.32
2019-03-28T14:09:24.521Z,33.22
2019-03-28T14:11:54.705Z,33.27
2019-03-28T14:14:24.550Z,33.33
2019-03-28T14:16:54.494Z,33.48
2019-03-28T14:19:24.460Z,33.55
2019-03-28T14:21:54.605Z,33.73
2019-03-28T14:24:24.527Z,33.82
2019-03-28T14:26:54.357Z,33.94
2019-03-28T14:29:24.253Z,33.94
2019-03-28T14:31:54.191Z,34.01
2019-03-28T14:34:24.143Z,34.04
2019-03-28T14:36:54.132Z,34.01
2019-03-28T14:39:23.922Z,34.07
2019-03-28T14:41:53.843Z,34.04
2019-03-28T14:44:23.941Z,34.17
2019-03-28T14:46:54.310Z,34.08
2019-03-28T14:49:24.178Z,34.08
2019-03-28T14:51:56.687Z,34.10
2019-03-28T14:54:26.516Z,34.16
2019-03-28T14:56:56.456Z,34.25
2019-03-28T14:59:32.300Z,34.16
2019-03-28T15:01:58.033Z,34.25
2019-03-28T15:04:27.912Z,34.33
2019-03-28T15:06:58.100Z,34.48
2019-03-28T15:09:27.940Z,34.61
2019-03-28T15:11:58.018Z,34.62
2019-03-28T15:14:27.814Z,34.77
2019-03-28T15:16:57.755Z,34.76
2019-03-28T15:19:27.665Z,34.79
2019-03-28T15:21:57.785Z,34.88
2019-03-28T15:24:27.697Z,34.78
2019-03-28T15:26:58.006Z,34.82
2019-03-28T15:29:27.876Z,34.88
2019-03-28T15:31:57.848Z,35.08
2019-03-28T15:34:27.810Z,35.26
2019-03-28T15:36:57.679Z,35.32
2019-03-28T15:39:27.567Z,35.32
2019-03-28T15:41:57.591Z,35.20
2019-03-28T15:44:27.731Z,35.09
2019-03-28T15:46:57.749Z,35.07
2019-03-28T15:49:27.924Z,35.20
2019-03-28T15:51:58.069Z,35.28
2019-03-28T15:54:27.926Z,35.38
2019-03-28T15:56:58.716Z,35.52
2019-03-28T15:59:28.912Z,35.52
2019-03-28T16:01:59.996Z,35.46
2019-03-28T16:04:30.197Z,35.48
2019-03-28T16:07:04.274Z,35.67
2019-03-28T16:09:34.302Z,35.78
2019-03-28T16:12:25.768Z,35.97
2019-03-28T16:15:02.063Z,36.01
2019-03-28T16:17:32.400Z,36.06
2019-03-28T16:20:02.630Z,36.22
2019-03-28T16:22:37.702Z,36.28
2019-03-28T16:25:07.356Z,36.34
2019-03-28T16:27:50.086Z,36.50
2019-03-28T16:30:49.105Z,36.49
2019-03-28T16:33:20.115Z,36.42
2019-03-28T16:36:13.893Z,36.51
2019-03-28T16:38:56.873Z,36.42
2019-03-28T16:52:25.146Z,36.63
2019-03-28T16:54:55.653Z,36.68
2019-03-28T16:57:26.298Z,36.78
2019-03-28T16:59:56.838Z,36.84
2019-03-28T17:02:27.075Z,36.93
2019-03-28T17:05:07.991Z,37.05
2019-03-28T17:08:54.614Z,37.02
2019-03-28T17:11:53.990Z,36.95
2019-03-28T17:14:29.967Z,36.91
2019-03-28T17:17:08.222Z,36.96
2019-03-28T17:19:42.988Z,37.05
2019-03-28T17:22:12.990Z,37.15
2019-03-28T17:24:42.807Z,37.27
2019-03-28T17:27:12.678Z,37.74
2019-03-28T17:29:42.534Z,37.66
2019-03-28T17:32:12.692Z,37.71
2019-03-28T17:34:45.846Z,37.82
2019-03-28T17:37:14.016Z,38.00
2019-03-28T17:39:43.869Z,38.05
2019-03-28T17:42:13.591Z,38.21
2019-03-28T17:44:43.322Z,38.15
2019-03-28T17:47:13.135Z,38.07
2019-03-28T17:49:42.956Z,38.04
2019-03-28T17:52:23.418Z,38.14
2019-03-28T17:54:48.757Z,38.12
2019-03-28T17:57:18.545Z,38.10
2019-03-28T17:59:48.466Z,38.25
2019-03-28T18:02:18.385Z,38.28
2019-03-28T18:04:48.462Z,38.28
2019-03-28T18:07:18.268Z,38.36
2019-03-28T18:09:55.731Z,38.44
2019-03-28T18:12:29.434Z,38.49
2019-03-28T18:15:00.704Z,38.40
2019-03-28T18:17:46.871Z,38.44
2019-03-28T18:20:44.399Z,38.61
2019-03-28T18:23:14.242Z,38.39
2019-03-28T18:25:44.124Z,38.46
2019-03-28T18:28:14.061Z,38.62
2019-03-28T18:30:43.968Z,38.68
2019-03-28T18:33:13.708Z,38.71
2019-03-28T18:35:53.871Z,38.79
2019-03-28T18:38:30.815Z,39.03
2019-03-28T18:41:04.837Z,39.02
2019-03-28T18:43:54.827Z,39.06
2019-03-28T18:46:28.373Z,39.11
2019-03-28T18:49:10.336Z,39.09
2019-03-28T18:51:43.996Z,39.09
2019-03-28T18:54:22.544Z,39.31
2019-03-28T18:57:06.771Z,39.39
2019-03-28T18:59:55.971Z,39.36
2019-03-28T19:02:31.543Z,39.47
2019-03-28T19:05:18.672Z,39.61
2019-03-28T19:07:39.447Z,39.79
2019-03-28T19:10:14.849Z,39.82
2019-03-28T19:12:46.180Z,39.87
2019-03-28T19:15:18.379Z,40.11
2019-03-28T19:17:48.181Z,40.25
2019-03-28T19:20:17.957Z,40.25
2019-03-28T19:22:50.255Z,40.39
2019-03-28T19:25:19.195Z,40.50
2019-03-28T19:27:49.071Z,40.67
2019-03-28T19:30:28.825Z,40.76
2019-03-28T19:32:58.547Z,40.66
2019-03-28T19:35:33.216Z,40.67
2019-03-28T19:37:59.707Z,40.73
2019-03-28T19:40:29.462Z,40.89
2019-03-28T19:42:59.218Z,40.92
2019-03-28T19:45:36.416Z,41.00
2019-03-28T19:48:06.931Z,41.04
2019-03-28T19:50:36.763Z,41.17
2019-03-28T19:53:06.781Z,41.49
2019-03-28T19:55:39.966Z,41.75
2019-03-28T19:58:08.176Z,41.82
2019-03-28T20:00:39.181Z,42.02
2019-03-28T20:03:08.968Z,42.15
2019-03-28T20:05:47.426Z,42.24
2019-03-28T20:08:16.020Z,42.31
2019-03-28T20:10:42.087Z,42.29
2019-03-28T20:13:12.376Z,42.44
2019-03-28T20:15:42.169Z,42.68
2019-03-28T20:18:12.025Z,42.83
2019-03-28T20:20:41.768Z,43.05
2019-03-28T20:23:11.504Z,43.13
2019-03-28T20:25:42.791Z,43.42
2019-03-28T20:28:14.343Z,43.71
2019-03-28T20:30:44.154Z,43.75
2019-03-28T20:33:13.908Z,43.91
2019-03-28T20:35:43.642Z,44.10
2019-03-28T20:38:13.503Z,44.34
2019-03-28T20:40:43.652Z,44.55
2019-03-28T20:43:14.389Z,44.81
2019-03-28T20:45:44.206Z,45.07
2019-03-28T20:48:14.796Z,45.17
2019-03-28T20:50:44.704Z,45.32
2019-03-28T20:53:14.432Z,45.45
2019-03-28T20:55:44.197Z,45.63
2019-03-28T20:58:14.138Z,45.83
2019-03-28T21:00:45.536Z,46.00
2019-03-28T21:03:15.432Z,46.23
2019-03-28T21:05:45.187Z,46.60
2019-03-28T21:08:15.043Z,46.79
2019-03-28T21:10:44.880Z,47.05
2019-03-28T21:13:14.667Z,47.13
2019-03-28T21:15:45.779Z,47.27
2019-03-28T21:18:15.642Z,47.32
2019-03-28T21:20:45.590Z,47.43
2019-03-28T21:23:15.286Z,47.52
2019-03-28T21:25:45.111Z,47.61
2019-03-28T21:28:14.775Z,47.76
2019-03-28T21:30:47.600Z,47.85
2019-03-28T21:33:15.974Z,47.88
2019-03-28T21:35:45.693Z,47.97
2019-03-28T21:38:15.475Z,48.08
2019-03-28T21:40:45.238Z,48.15
2019-03-28T21:43:15.033Z,48.32
2019-03-28T21:45:44.774Z,48.43
2019-03-28T21:48:14.615Z,48.56
2019-03-28T21:50:44.387Z,48.63
2019-03-28T21:53:14.131Z,48.69
2019-03-28T21:55:54.301Z,48.83
2019-03-28T21:58:15.172Z,49.02
2019-03-28T22:00:44.776Z,49.15
2019-03-28T22:03:14.421Z,49.26
2019-03-28T22:05:44.030Z,49.39
2019-03-28T22:08:13.771Z,49.50
2019-03-28T22:10:43.408Z,49.67
2019-03-28T22:13:13.107Z,49.72
2019-03-28T22:15:42.739Z,49.84
2019-03-28T22:18:12.427Z,49.93
2019-03-28T22:20:42.193Z,49.98
2019-03-28T22:23:13.544Z,50.11
2019-03-28T22:25:43.162Z,50.27
2019-03-28T22:28:12.914Z,50.34
2019-03-28T22:30:42.559Z,50.44
2019-03-28T22:33:12.194Z,50.49
2019-03-28T22:35:42.066Z,50.54
2019-03-28T22:38:11.718Z,50.63
2019-03-28T22:40:43.774Z,50.78
2019-03-28T22:43:12.905Z,50.89
2019-03-28T22:45:43.807Z,50.97
2019-03-28T22:48:13.501Z,51.11
2019-03-28T22:50:43.181Z,51.28
2019-03-28T22:53:15.497Z,51.34
2019-03-28T22:55:45.093Z,51.44
2019-03-28T22:58:14.850Z,51.48
2019-03-28T23:00:45.782Z,51.47
2019-03-28T23:03:15.727Z,51.52
2019-03-28T23:05:45.409Z,51.62
2019-03-28T23:08:15.115Z,51.69
2019-03-28T23:10:44.882Z,51.72
2019-03-28T23:13:14.599Z,51.78
2019-03-28T23:15:44.263Z,51.91
2019-03-28T23:18:13.938Z,52.00
2019-03-28T23:20:43.575Z,52.07
2019-03-28T23:23:13.217Z,52.11
2019-03-28T23:25:42.846Z,52.23
2019-03-28T23:28:12.518Z,52.51
2019-03-28T23:30:42.235Z,52.60
2019-03-28T23:33:12.034Z,52.57
2019-03-28T23:35:41.657Z,52.60
2019-03-28T23:38:11.325Z,52.62
2019-03-28T23:40:40.985Z,52.68
2019-03-28T23:43:10.606Z,52.73
2019-03-28T23:45:40.263Z,52.90
2019-03-28T23:48:10.090Z,52.91
2019-03-28T23:50:39.705Z,52.92
2019-03-28T23:53:09.367Z,52.95
2019-03-28T23:55:38.996Z,53.01
2019-03-28T23:58:08.594Z,53.04
